createdAt,value
2017-11-16T00:01:15.531Z,17.83
2017-11-16T00:03:49.585Z,12.60
2017-11-16T00:06:23.195Z,12.53
2017-11-16T00:08:56.747Z,12.10
2017-11-16T00:11:30.396Z,12.43
2017-11-16T00:14:04.094Z,14.00
2017-11-16T00:16:37.551Z,14.13
2017-11-16T00:19:11.190Z,15.63
2017-11-16T00:21:44.886Z,10.47
2017-11-16T00:24:19.299Z,14.67
2017-11-16T00:26:52.862Z,13.90
2017-11-16T00:29:26.719Z,15.63
2017-11-16T00:32:00.147Z,16.87
2017-11-16T00:34:34.535Z,16.07
2017-11-16T00:37:08.138Z,14.17
2017-11-16T00:39:41.800Z,12.57
2017-11-16T00:42:15.339Z,14.90
2017-11-16T00:44:48.950Z,12.50
2017-11-16T00:47:23.266Z,16.10
2017-11-16T00:49:57.655Z,13.50
2017-11-16T00:52:31.227Z,12.13
2017-11-16T00:55:04.873Z,15.03
2017-11-16T00:57:39.271Z,14.00
2017-11-16T01:00:13.102Z,11.57
2017-11-16T01:02:46.699Z,17.03
2017-11-16T01:05:20.998Z,12.30
2017-11-16T01:07:54.690Z,10.87
2017-11-16T01:10:28.530Z,10.00
2017-11-16T01:13:02.542Z,12.00
2017-11-16T01:15:36.023Z,9.57
2017-11-16T01:18:10.050Z,14.70
2017-11-16T01:20:44.351Z,14.17
2017-11-16T01:23:17.976Z,10.10
2017-11-16T01:25:51.578Z,10.37
2017-11-16T01:28:25.119Z,9.37
2017-11-16T01:30:59.479Z,9.57
2017-11-16T01:33:33.047Z,9.57
2017-11-16T01:36:06.790Z,11.03
2017-11-16T01:38:40.267Z,12.00
2017-11-16T01:41:13.891Z,11.87
2017-11-16T01:43:47.491Z,10.00
2017-11-16T01:46:21.399Z,11.37
2017-11-16T01:48:54.907Z,9.87
2017-11-16T01:51:29.287Z,9.33
2017-11-16T01:54:03.698Z,9.47
2017-11-16T01:56:37.443Z,13.13
2017-11-16T01:59:11.111Z,8.20
2017-11-16T02:01:44.955Z,9.07
2017-11-16T02:04:18.555Z,8.87
2017-11-16T02:06:52.368Z,9.50
2017-11-16T02:09:25.959Z,9.33
2017-11-16T02:11:59.771Z,11.83
2017-11-16T02:14:33.571Z,6.90
2017-11-16T02:17:06.992Z,7.60
2017-11-16T02:19:40.533Z,11.33
2017-11-16T02:22:14.171Z,6.77
2017-11-16T02:24:47.723Z,6.90
2017-11-16T02:27:21.478Z,8.00
2017-11-16T02:29:55.071Z,7.40
2017-11-16T02:32:28.532Z,7.90
2017-11-16T02:35:02.436Z,8.13
2017-11-16T02:37:36.287Z,8.20
2017-11-16T02:40:10.616Z,7.53
2017-11-16T02:42:44.322Z,7.53
2017-11-16T02:45:18.005Z,9.77
2017-11-16T02:47:51.471Z,7.60
2017-11-16T02:50:25.031Z,12.60
2017-11-16T02:52:58.607Z,6.30
2017-11-16T02:55:32.322Z,10.53
2017-11-16T02:58:06.839Z,9.50
2017-11-16T03:00:40.332Z,8.97
2017-11-16T03:03:14.138Z,7.73
2017-11-16T03:05:47.878Z,10.20
2017-11-16T03:08:21.544Z,7.80
2017-11-16T03:10:55.208Z,8.77
2017-11-16T03:13:28.958Z,8.63
2017-11-16T03:16:02.556Z,9.53
2017-11-16T03:18:36.598Z,7.57
2017-11-16T03:21:10.363Z,7.70
2017-11-16T03:23:43.870Z,10.93
2017-11-16T03:26:17.563Z,8.83
2017-11-16T03:28:51.176Z,6.70
2017-11-16T03:31:24.759Z,6.27
2017-11-16T03:33:58.472Z,8.37
2017-11-16T03:36:32.143Z,8.10
2017-11-16T03:39:05.878Z,7.60
2017-11-16T03:41:39.532Z,6.90
2017-11-16T03:44:13.292Z,6.40
2017-11-16T03:46:48.735Z,7.63
2017-11-16T03:49:22.308Z,6.97
2017-11-16T03:51:55.930Z,7.00
2017-11-16T03:54:30.126Z,6.63
2017-11-16T03:57:03.755Z,8.07
2017-11-16T03:59:37.252Z,9.33
2017-11-16T04:02:10.842Z,6.27
2017-11-16T04:04:45.171Z,6.53
2017-11-16T04:07:18.837Z,7.20
2017-11-16T04:09:52.675Z,4.97
2017-11-16T04:12:26.243Z,7.27
2017-11-16T04:14:59.993Z,5.60
2017-11-16T04:17:33.992Z,6.00
2017-11-16T04:20:07.671Z,6.77
2017-11-16T04:22:41.258Z,4.93
2017-11-16T04:25:15.099Z,4.50
2017-11-16T04:27:49.379Z,6.33
2017-11-16T04:30:23.218Z,6.60
2017-11-16T04:32:56.768Z,4.50
2017-11-16T04:35:31.247Z,4.87
2017-11-16T04:38:04.734Z,4.70
2017-11-16T04:40:38.308Z,3.20
2017-11-16T04:43:11.914Z,2.87
2017-11-16T04:45:45.653Z,4.23
2017-11-16T04:48:19.466Z,3.37
2017-11-16T04:50:53.150Z,3.33
2017-11-16T04:53:26.958Z,3.40
2017-11-16T04:56:01.467Z,3.90
2017-11-16T04:58:34.985Z,3.40
2017-11-16T05:01:08.586Z,3.80
2017-11-16T05:03:42.283Z,5.13
2017-11-16T05:06:15.889Z,4.20
2017-11-16T05:08:49.865Z,4.03
2017-11-16T05:11:23.440Z,3.13
2017-11-16T05:13:56.948Z,3.40
2017-11-16T05:16:30.704Z,3.10
2017-11-16T05:19:04.399Z,3.67
2017-11-16T05:21:38.060Z,3.63
2017-11-16T05:24:11.674Z,4.00
2017-11-16T05:26:45.307Z,5.27
2017-11-16T05:29:19.011Z,2.57
2017-11-16T05:31:52.723Z,2.83
2017-11-16T05:34:26.375Z,2.37
2017-11-16T05:37:00.175Z,3.10
2017-11-16T05:39:33.624Z,3.77
2017-11-16T05:42:07.318Z,2.73
2017-11-16T05:44:40.928Z,7.47
2017-11-16T05:47:14.487Z,3.13
2017-11-16T05:49:48.027Z,2.20
2017-11-16T05:52:21.628Z,2.90
2017-11-16T05:54:55.337Z,3.10
2017-11-16T05:57:28.780Z,2.80
2017-11-16T06:00:03.342Z,3.43
2017-11-16T06:02:36.947Z,2.50
2017-11-16T06:05:10.651Z,3.43
2017-11-16T06:07:44.221Z,3.83
2017-11-16T06:10:18.415Z,3.27
2017-11-16T06:12:52.037Z,2.70
2017-11-16T06:15:25.616Z,6.90
2017-11-16T06:17:59.267Z,2.80
2017-11-16T06:20:33.199Z,3.40
2017-11-16T06:23:06.987Z,3.10
2017-11-16T06:25:40.556Z,3.43
2017-11-16T06:28:14.149Z,3.40
2017-11-16T06:30:48.302Z,5.03
2017-11-16T06:33:22.214Z,3.37
2017-11-16T06:35:55.699Z,5.30
2017-11-16T06:38:29.264Z,4.10
2017-11-16T06:41:03.827Z,3.73
2017-11-16T06:43:37.428Z,4.27
2017-11-16T06:46:11.027Z,4.80
2017-11-16T06:48:44.599Z,3.73
2017-11-16T06:51:18.127Z,4.77
2017-11-16T06:53:51.727Z,4.27
2017-11-16T06:56:25.328Z,5.93
2017-11-16T06:58:59.548Z,5.40
2017-11-16T07:01:33.101Z,4.90
2017-11-16T07:04:06.959Z,6.27
2017-11-16T07:06:40.751Z,4.27
2017-11-16T07:09:14.676Z,4.33
2017-11-16T07:11:48.254Z,6.20
2017-11-16T07:14:21.867Z,5.23
2017-11-16T07:16:55.339Z,8.40
2017-11-16T07:19:28.938Z,5.30
2017-11-16T07:22:02.424Z,5.07
2017-11-16T07:24:36.171Z,6.03
2017-11-16T07:27:09.767Z,6.97
2017-11-16T07:29:43.272Z,6.13
2017-11-16T07:32:16.776Z,6.80
2017-11-16T07:34:50.571Z,5.40
2017-11-16T07:37:24.338Z,7.70
2017-11-16T07:39:58.179Z,7.53
2017-11-16T07:42:31.897Z,7.17
2017-11-16T07:45:05.586Z,7.50
2017-11-16T07:47:39.155Z,8.20
2017-11-16T07:50:12.811Z,10.10
2017-11-16T07:52:46.471Z,10.10
2017-11-16T07:55:20.111Z,8.20
2017-11-16T07:57:53.816Z,7.20
2017-11-16T08:00:28.282Z,10.20
2017-11-16T08:03:01.928Z,9.97
2017-11-16T08:05:36.444Z,9.43
2017-11-16T08:08:10.863Z,8.20
2017-11-16T08:10:44.547Z,8.90
2017-11-16T08:13:18.015Z,17.23
2017-11-16T08:15:51.662Z,13.37
2017-11-16T08:18:26.423Z,11.80
2017-11-16T08:21:00.802Z,12.50
2017-11-16T08:23:34.513Z,10.53
2017-11-16T08:26:09.139Z,13.10
2017-11-16T08:28:42.738Z,13.70
2017-11-16T08:31:16.254Z,13.50
2017-11-16T08:33:49.839Z,13.60
2017-11-16T08:36:23.458Z,14.03
2017-11-16T08:38:57.143Z,13.40
2017-11-16T08:41:30.847Z,13.80
2017-11-16T08:44:04.408Z,15.33
2017-11-16T08:46:38.023Z,15.30
2017-11-16T08:49:11.615Z,16.17
2017-11-16T08:51:45.220Z,12.90
2017-11-16T08:54:18.946Z,15.43
2017-11-16T08:56:52.776Z,21.90
2017-11-16T08:59:26.583Z,11.53
2017-11-16T09:02:01.092Z,15.60
2017-11-16T09:04:34.668Z,14.53
2017-11-16T09:07:08.909Z,13.87
2017-11-16T09:09:42.512Z,17.27
2017-11-16T09:12:16.196Z,19.30
2017-11-16T09:14:49.816Z,14.47
2017-11-16T09:17:23.415Z,17.10
2017-11-16T09:19:57.002Z,14.30
2017-11-16T09:22:30.756Z,12.77
2017-11-16T09:25:05.298Z,11.57
2017-11-16T09:27:39.664Z,16.57
2017-11-16T09:30:13.222Z,14.10
2017-11-16T09:32:46.964Z,21.00
2017-11-16T09:35:20.772Z,13.03
2017-11-16T09:37:54.331Z,15.00
2017-11-16T09:40:28.167Z,16.70
2017-11-16T09:43:01.770Z,15.67
2017-11-16T09:45:35.578Z,15.47
2017-11-16T09:48:09.293Z,15.17
2017-11-16T09:50:44.292Z,12.77
2017-11-16T09:53:18.040Z,13.37
2017-11-16T09:55:51.483Z,14.30
2017-11-16T09:58:25.128Z,14.03
2017-11-16T10:00:58.927Z,15.67
2017-11-16T10:03:32.599Z,13.70
2017-11-16T10:06:06.336Z,13.80
2017-11-16T10:08:39.921Z,14.90
2017-11-16T10:11:13.531Z,14.40
2017-11-16T10:13:47.195Z,12.00
2017-11-16T10:16:20.814Z,12.50
2017-11-16T10:18:54.444Z,16.70
2017-11-16T10:21:27.992Z,16.07
2017-11-16T10:24:02.436Z,15.90
2017-11-16T10:26:42.004Z,15.70
2017-11-16T10:29:15.495Z,17.90
2017-11-16T10:31:49.163Z,16.70
2017-11-16T10:34:23.863Z,19.97
2017-11-16T10:36:57.433Z,15.03
2017-11-16T10:39:31.038Z,17.70
2017-11-16T10:42:04.596Z,15.70
2017-11-16T10:44:38.061Z,18.13
2017-11-16T10:47:11.884Z,20.20
2017-11-16T10:49:46.035Z,22.17
2017-11-16T10:52:19.847Z,16.13
2017-11-16T10:54:53.508Z,19.13
2017-11-16T10:57:27.165Z,21.53
2017-11-16T11:00:00.751Z,18.10
2017-11-16T11:02:34.992Z,21.60
2017-11-16T11:05:08.784Z,20.30
2017-11-16T11:07:43.099Z,18.20
2017-11-16T11:10:16.707Z,17.53
2017-11-16T11:12:50.300Z,17.83
2017-11-16T11:15:23.899Z,16.30
2017-11-16T11:17:57.363Z,16.23
2017-11-16T11:20:30.995Z,13.97
2017-11-16T11:23:05.928Z,18.10
2017-11-16T11:25:39.531Z,19.50
2017-11-16T11:28:12.986Z,16.93
2017-11-16T11:30:46.678Z,22.10
2017-11-16T11:33:21.132Z,22.33
2017-11-16T11:35:54.839Z,18.87
2017-11-16T11:38:28.449Z,18.27
2017-11-16T11:41:02.016Z,18.67
2017-11-16T11:43:36.267Z,21.77
2017-11-16T11:46:09.881Z,17.17
2017-11-16T11:48:43.475Z,17.47
2017-11-16T11:51:17.075Z,18.63
2017-11-16T11:53:50.742Z,18.30
2017-11-16T11:56:25.304Z,16.50
2017-11-16T11:58:58.895Z,25.27
2017-11-16T12:01:32.498Z,19.10
2017-11-16T12:04:05.956Z,15.90
2017-11-16T12:06:39.708Z,18.67
2017-11-16T12:09:14.132Z,17.30
2017-11-16T12:11:47.827Z,20.60
2017-11-16T12:14:22.380Z,20.00
2017-11-16T12:16:56.061Z,18.73
2017-11-16T12:19:29.876Z,15.57
2017-11-16T12:22:03.489Z,21.70
2017-11-16T12:24:37.099Z,18.93
2017-11-16T12:27:10.751Z,18.20
2017-11-16T12:29:44.310Z,18.83
2017-11-16T12:32:17.876Z,29.43
2017-11-16T12:34:51.377Z,19.10
2017-11-16T12:37:25.668Z,16.57
2017-11-16T12:39:59.280Z,19.47
2017-11-16T12:42:32.852Z,17.90
2017-11-16T12:45:06.427Z,20.20
2017-11-16T12:47:40.074Z,21.50
2017-11-16T12:50:13.887Z,20.40
2017-11-16T12:52:47.696Z,18.60
2017-11-16T12:55:22.015Z,24.90
2017-11-16T12:57:55.719Z,24.23
2017-11-16T13:00:30.135Z,22.90
2017-11-16T13:03:03.711Z,21.33
2017-11-16T13:05:37.970Z,20.83
2017-11-16T13:08:11.656Z,14.87
2017-11-16T13:10:45.201Z,21.57
2017-11-16T13:13:18.860Z,22.33
2017-11-16T13:15:52.367Z,19.80
2017-11-16T13:18:25.800Z,20.40
2017-11-16T13:20:59.843Z,26.67
2017-11-16T13:23:33.880Z,25.87
2017-11-16T13:26:07.440Z,29.10
2017-11-16T13:28:41.082Z,24.20
2017-11-16T13:31:14.725Z,26.87
2017-11-16T13:33:48.277Z,31.97
2017-11-16T13:36:21.778Z,29.10
2017-11-16T13:38:55.485Z,28.57
2017-11-16T13:41:29.080Z,24.27
2017-11-16T13:44:03.376Z,24.23
2017-11-16T13:46:37.099Z,22.20
2017-11-16T13:49:11.117Z,21.70
2017-11-16T13:51:44.900Z,20.80
2017-11-16T13:54:19.032Z,17.60
2017-11-16T13:56:52.532Z,21.63
2017-11-16T13:59:26.132Z,18.47
2017-11-16T14:02:01.008Z,20.07
2017-11-16T14:04:34.816Z,21.47
2017-11-16T14:07:08.423Z,23.47
2017-11-16T14:09:42.264Z,23.27
2017-11-16T14:12:15.771Z,20.43
2017-11-16T14:14:49.496Z,21.30
2017-11-16T14:17:23.036Z,26.00
2017-11-16T14:19:56.596Z,26.87
2017-11-16T14:22:30.268Z,30.07
2017-11-16T14:25:03.988Z,24.67
2017-11-16T14:27:37.793Z,19.77
2017-11-16T14:30:11.349Z,17.27
2017-11-16T14:32:44.960Z,18.80
2017-11-16T14:35:18.479Z,20.80
2017-11-16T14:37:52.151Z,19.03
2017-11-16T14:40:25.879Z,22.70
2017-11-16T14:42:59.743Z,19.10
2017-11-16T14:45:33.503Z,16.60
2017-11-16T14:48:07.111Z,21.57
2017-11-16T14:50:40.691Z,16.33
2017-11-16T14:53:14.316Z,19.70
2017-11-16T14:55:47.920Z,18.87
2017-11-16T14:58:21.520Z,21.50
2017-11-16T15:00:55.316Z,23.43
2017-11-16T15:03:28.972Z,24.20
2017-11-16T15:06:02.726Z,23.47
2017-11-16T15:08:36.380Z,25.90
2017-11-16T15:11:10.023Z,25.47
2017-11-16T15:13:43.628Z,26.27
2017-11-16T15:16:17.467Z,24.73
2017-11-16T15:18:51.037Z,25.70
2017-11-16T15:21:24.638Z,22.20
2017-11-16T15:23:59.114Z,24.13
2017-11-16T15:26:32.762Z,27.77
2017-11-16T15:29:06.356Z,24.90
2017-11-16T15:31:39.951Z,22.40
2017-11-16T15:34:13.664Z,23.30
2017-11-16T15:36:47.165Z,24.70
2017-11-16T15:39:20.767Z,23.90
2017-11-16T15:41:55.076Z,24.60
2017-11-16T15:44:28.890Z,23.07
2017-11-16T15:47:02.688Z,30.17
2017-11-16T15:49:36.232Z,27.67
2017-11-16T15:52:09.755Z,26.00
2017-11-16T15:54:43.293Z,27.10
2017-11-16T15:57:17.703Z,21.90
2017-11-16T15:59:51.314Z,28.13
2017-11-16T16:02:25.429Z,26.20
2017-11-16T16:04:59.130Z,29.43
2017-11-16T16:07:32.731Z,28.17
2017-11-16T16:10:06.312Z,24.90
2017-11-16T16:12:40.546Z,36.10
2017-11-16T16:15:14.141Z,29.23
2017-11-16T16:17:47.850Z,29.70
2017-11-16T16:20:21.498Z,28.83
2017-11-16T16:22:55.029Z,27.60
2017-11-16T16:25:28.652Z,26.47
2017-11-16T16:28:02.253Z,30.13
2017-11-16T16:30:35.968Z,28.17
2017-11-16T16:33:09.530Z,27.03
2017-11-16T16:35:44.077Z,30.20
2017-11-16T16:38:17.979Z,24.73
2017-11-16T16:40:51.590Z,30.07
2017-11-16T16:43:25.278Z,32.80
2017-11-16T16:45:58.887Z,29.70
2017-11-16T16:48:32.496Z,27.37
2017-11-16T16:51:05.992Z,27.73
2017-11-16T16:53:40.204Z,27.27
2017-11-16T16:56:14.595Z,26.63
2017-11-16T16:58:50.690Z,29.83
2017-11-16T17:01:24.389Z,31.87
2017-11-16T17:03:58.327Z,34.83
2017-11-16T17:06:31.888Z,31.37
2017-11-16T17:09:05.700Z,26.57
2017-11-16T17:11:39.290Z,30.03
2017-11-16T17:14:13.819Z,28.77
2017-11-16T17:16:47.945Z,27.47
2017-11-16T17:19:21.415Z,31.50
2017-11-16T17:21:55.032Z,27.93
2017-11-16T17:24:28.543Z,30.23
2017-11-16T17:27:02.143Z,28.40
2017-11-16T17:29:36.628Z,27.20
2017-11-16T17:32:10.471Z,28.50
2017-11-16T17:34:44.071Z,24.67
2017-11-16T17:37:17.628Z,26.80
2017-11-16T17:39:51.217Z,30.97
2017-11-16T17:42:24.755Z,21.57
2017-11-16T17:44:58.231Z,25.67
2017-11-16T17:47:31.865Z,28.97
2017-11-16T17:50:05.459Z,26.23
2017-11-16T17:52:39.055Z,31.07
2017-11-16T17:55:12.563Z,28.37
2017-11-16T17:57:46.064Z,32.57
2017-11-16T18:00:19.858Z,33.50
2017-11-16T18:02:53.462Z,33.10
2017-11-16T18:05:27.063Z,39.40
2017-11-16T18:08:00.676Z,28.63
2017-11-16T18:10:34.240Z,35.60
2017-11-16T18:13:07.751Z,31.90
2017-11-16T18:15:41.367Z,34.73
2017-11-16T18:18:15.380Z,34.77
2017-11-16T18:20:48.971Z,35.47
2017-11-16T18:23:23.196Z,35.87
2017-11-16T18:25:57.398Z,37.30
2017-11-16T18:28:32.009Z,37.10
2017-11-16T18:31:05.731Z,44.30
2017-11-16T18:33:39.299Z,39.13
2017-11-16T18:36:12.795Z,42.60
2017-11-16T18:38:46.715Z,44.77
2017-11-16T18:41:20.356Z,52.53
2017-11-16T18:43:54.054Z,61.25
2017-11-16T18:46:27.607Z,54.83
2017-11-16T18:49:01.215Z,74.17
2017-11-16T18:51:35.573Z,60.67
2017-11-16T18:54:09.847Z,69.83
2017-11-16T18:56:43.528Z,66.97
2017-11-16T18:59:17.040Z,73.10
2017-11-16T19:01:50.481Z,57.47
2017-11-16T19:04:23.992Z,65.67
2017-11-16T19:06:58.276Z,69.73
2017-11-16T19:09:31.738Z,70.83
2017-11-16T19:12:05.353Z,67.70
2017-11-16T19:14:39.008Z,61.47
2017-11-16T19:17:12.672Z,63.27
2017-11-16T19:19:46.978Z,72.30
2017-11-16T19:22:20.506Z,58.80
2017-11-16T19:24:54.108Z,70.62
2017-11-16T19:27:28.444Z,55.47
2017-11-16T19:30:01.872Z,59.30
2017-11-16T19:32:35.395Z,61.77
2017-11-16T19:35:08.912Z,51.43
2017-11-16T19:37:43.137Z,51.33
2017-11-16T19:40:16.593Z,71.00
2017-11-16T19:42:50.056Z,81.40
2017-11-16T19:45:23.495Z,60.17
2017-11-16T19:47:57.020Z,52.53
2017-11-16T19:50:31.426Z,56.40
2017-11-16T19:53:05.081Z,56.37
2017-11-16T19:55:38.639Z,51.60
2017-11-16T19:58:12.163Z,61.73
2017-11-16T20:00:45.692Z,56.73
2017-11-16T20:03:19.140Z,50.03
2017-11-16T20:05:52.647Z,48.83
2017-11-16T20:08:26.940Z,53.07
2017-11-16T20:11:00.510Z,53.77
2017-11-16T20:13:34.178Z,54.80
2017-11-16T20:16:07.617Z,55.53
2017-11-16T20:18:41.130Z,52.13
2017-11-16T20:21:14.655Z,50.07
2017-11-16T20:23:48.955Z,55.77
2017-11-16T20:26:23.172Z,51.10
2017-11-16T20:28:57.399Z,52.83
2017-11-16T20:31:30.911Z,56.00
2017-11-16T20:34:04.595Z,53.20
2017-11-16T20:36:53.944Z,53.83
2017-11-16T20:39:29.341Z,52.20
2017-11-16T20:42:08.575Z,58.50
2017-11-16T20:44:57.740Z,58.30
2017-11-16T20:47:37.061Z,47.30
2017-11-16T20:50:26.238Z,49.47
2017-11-16T20:53:00.619Z,49.00
2017-11-16T20:55:49.032Z,50.00
2017-11-16T20:58:22.684Z,47.50
2017-11-16T21:00:56.210Z,44.60
2017-11-16T21:03:30.486Z,59.33
2017-11-16T21:06:04.807Z,53.43
2017-11-16T21:08:38.372Z,51.17
2017-11-16T21:11:11.907Z,43.40
2017-11-16T21:13:45.579Z,52.10
2017-11-16T21:16:19.178Z,51.60
2017-11-16T21:18:52.689Z,47.97
2017-11-16T21:21:26.347Z,44.67
2017-11-16T21:24:00.612Z,45.80
2017-11-16T21:26:34.158Z,48.73
2017-11-16T21:29:07.698Z,46.30
2017-11-16T21:31:41.300Z,41.77
2017-11-16T21:34:14.807Z,41.17
2017-11-16T21:36:48.335Z,42.43
2017-11-16T21:39:21.897Z,46.13
2017-11-16T21:41:55.357Z,39.97
2017-11-16T21:44:28.965Z,42.57
2017-11-16T21:47:03.339Z,39.47
2017-11-16T21:49:37.544Z,37.00
2017-11-16T21:52:11.079Z,41.23
2017-11-16T21:54:44.740Z,40.70
2017-11-16T21:57:18.185Z,45.10
2017-11-16T21:59:51.825Z,43.30
2017-11-16T22:02:25.339Z,40.20
2017-11-16T22:04:59.768Z,33.43
2017-11-16T22:07:34.191Z,37.33
2017-11-16T22:10:07.651Z,48.30
2017-11-16T22:12:41.184Z,42.07
2017-11-16T22:15:14.722Z,42.50
2017-11-16T22:17:48.158Z,38.97
2017-11-16T22:20:21.671Z,42.40
2017-11-16T22:22:55.123Z,33.37
2017-11-16T22:25:28.665Z,32.80
2017-11-16T22:28:02.311Z,30.67
2017-11-16T22:30:36.600Z,32.97
2017-11-16T22:33:11.263Z,38.50
2017-11-16T22:35:45.533Z,36.20
2017-11-16T22:38:19.867Z,36.70
2017-11-16T22:40:54.068Z,35.70
2017-11-16T22:43:28.573Z,34.97
2017-11-16T22:46:02.596Z,40.33
2017-11-16T22:48:36.457Z,35.03
2017-11-16T22:51:10.628Z,35.30
2017-11-16T22:53:44.172Z,33.47
2017-11-16T22:56:17.647Z,38.63
2017-11-16T22:58:51.559Z,34.90
2017-11-16T23:01:25.460Z,77.30
2017-11-16T23:03:59.067Z,39.30
2017-11-16T23:06:33.442Z,45.07
2017-11-16T23:09:07.186Z,34.23
2017-11-16T23:11:40.762Z,34.37
2017-11-16T23:14:14.401Z,34.73
2017-11-16T23:16:48.047Z,33.20
2017-11-16T23:19:21.544Z,32.40
2017-11-16T23:21:55.302Z,32.70
2017-11-16T23:24:28.903Z,37.50
2017-11-16T23:27:02.608Z,30.33
2017-11-16T23:29:36.235Z,34.03
2017-11-16T23:32:09.944Z,31.13
2017-11-16T23:34:43.819Z,32.43
2017-11-16T23:37:18.227Z,35.47
2017-11-16T23:39:51.923Z,32.27
2017-11-16T23:42:25.534Z,33.60
2017-11-16T23:44:59.045Z,29.50
2017-11-16T23:47:32.516Z,28.60
2017-11-16T23:50:06.130Z,35.97
2017-11-16T23:52:39.840Z,30.87
2017-11-16T23:55:13.396Z,30.13
2017-11-16T23:57:47.048Z,34.57
